createdAt,value
2019-04-28T00:01:31.067Z,2.85
2019-04-28T00:04:01.352Z,2.75
2019-04-28T00:06:31.209Z,2.57
2019-04-28T00:09:01.618Z,2.46
2019-04-28T00:11:31.669Z,2.37
2019-04-28T00:14:01.868Z,2.37
2019-04-28T00:16:31.362Z,2.61
2019-04-28T00:19:01.139Z,2.54
2019-04-28T00:21:31.976Z,2.52
2019-04-28T00:24:18.234Z,2.46
2019-04-28T00:26:48.342Z,2.64
2019-04-28T00:29:16.841Z,2.66
2019-04-28T00:31:45.258Z,3.00
2019-04-28T00:34:13.767Z,3.12
2019-04-28T00:36:43.787Z,3.22
2019-04-28T00:39:12.436Z,3.18
2019-04-28T00:41:42.016Z,3.24
2019-04-28T00:44:11.923Z,3.12
2019-04-28T00:46:41.799Z,3.17
2019-04-28T00:49:11.889Z,3.11
2019-04-28T00:51:41.488Z,3.10
2019-04-28T00:54:11.989Z,3.29
2019-04-28T00:56:41.821Z,3.14
2019-04-28T00:59:11.799Z,3.14
2019-04-28T01:01:48.515Z,3.23
2019-04-28T01:04:17.042Z,3.33
2019-04-28T01:06:45.461Z,3.19
2019-04-28T01:09:14.012Z,3.27
2019-04-28T01:11:42.789Z,3.18
2019-04-28T01:14:11.613Z,3.21
2019-04-28T01:16:49.831Z,3.29
2019-04-28T01:19:22.431Z,3.27
2019-04-28T01:22:10.615Z,3.30
2019-04-28T01:24:40.473Z,3.50
2019-04-28T01:27:10.863Z,3.54
2019-04-28T01:29:40.319Z,3.45
2019-04-28T01:32:16.262Z,3.39
2019-04-28T01:34:44.782Z,3.54
2019-04-28T01:37:13.219Z,3.42
2019-04-28T01:39:41.711Z,3.48
2019-04-28T01:42:10.691Z,3.42
2019-04-28T01:44:39.644Z,3.45
2019-04-28T01:47:08.304Z,3.45
2019-04-28T01:49:36.838Z,3.57
2019-04-28T01:52:05.524Z,3.29
2019-04-28T01:54:33.938Z,3.19
2019-04-28T01:57:02.421Z,3.20
2019-04-28T01:59:30.935Z,3.21
2019-04-28T02:02:00.041Z,3.21
2019-04-28T02:04:32.089Z,3.20
2019-04-28T02:06:59.820Z,3.14
2019-04-28T02:09:29.627Z,2.99
2019-04-28T02:11:58.293Z,3.19
2019-04-28T02:14:26.878Z,3.10
2019-04-28T02:16:55.314Z,3.09
2019-04-28T02:19:23.798Z,3.09
2019-04-28T02:21:59.871Z,3.11
2019-04-28T02:24:30.872Z,3.11
2019-04-28T02:27:00.806Z,3.10
2019-04-28T02:29:30.300Z,3.27
2019-04-28T02:32:02.099Z,3.30
2019-04-28T02:34:31.147Z,3.14
2019-04-28T02:37:01.358Z,3.16
2019-04-28T02:39:31.285Z,3.20
2019-04-28T02:42:01.369Z,3.13
2019-04-28T02:44:33.461Z,3.25
2019-04-28T02:47:01.132Z,3.12
2019-04-28T02:49:43.812Z,3.12
2019-04-28T02:52:31.036Z,3.15
2019-04-28T02:55:03.226Z,3.23
2019-04-28T02:57:30.685Z,3.30
2019-04-28T03:00:00.480Z,3.20
2019-04-28T03:02:32.013Z,3.07
2019-04-28T03:05:00.343Z,3.13
2019-04-28T03:07:31.167Z,3.00
2019-04-28T03:10:01.147Z,3.05
2019-04-28T03:12:31.435Z,3.17
2019-04-28T03:15:00.645Z,3.12
2019-04-28T03:17:31.054Z,3.25
2019-04-28T03:20:01.161Z,3.09
2019-04-28T03:22:32.997Z,3.03
2019-04-28T03:25:01.737Z,3.08
2019-04-28T03:27:34.831Z,3.00
2019-04-28T03:30:08.316Z,3.00
2019-04-28T03:32:47.401Z,2.95
2019-04-28T03:35:12.907Z,2.84
2019-04-28T03:37:41.191Z,2.94
2019-04-28T03:40:11.519Z,2.87
2019-04-28T03:42:41.081Z,2.79
2019-04-28T03:45:11.445Z,2.78
2019-04-28T03:47:40.765Z,2.83
2019-04-28T03:50:10.442Z,2.68
2019-04-28T03:52:41.371Z,2.80
2019-04-28T03:55:11.111Z,2.75
2019-04-28T03:57:41.177Z,2.72
2019-04-28T04:00:11.217Z,2.78
2019-04-28T04:02:41.202Z,2.85
2019-04-28T04:05:11.086Z,2.77
2019-04-28T04:07:42.886Z,2.76
2019-04-28T04:10:13.261Z,2.75
2019-04-28T04:12:51.852Z,2.68
2019-04-28T04:15:31.041Z,2.64
2019-04-28T04:18:13.306Z,2.65
2019-04-28T04:20:41.732Z,2.74
2019-04-28T04:23:11.284Z,2.68
2019-04-28T04:25:41.588Z,2.82
2019-04-28T04:28:10.741Z,2.88
2019-04-28T04:30:41.001Z,2.91
2019-04-28T04:33:11.194Z,2.75
2019-04-28T04:35:41.140Z,2.73
2019-04-28T04:38:10.523Z,2.80
2019-04-28T04:40:41.226Z,2.75
2019-04-28T04:43:11.181Z,2.75
2019-04-28T04:45:40.530Z,2.74
2019-04-28T04:48:11.391Z,2.71
2019-04-28T04:50:41.189Z,2.90
2019-04-28T04:53:10.971Z,3.28
2019-04-28T04:55:40.957Z,3.45
2019-04-28T04:58:10.682Z,3.74
2019-04-28T05:00:56.132Z,3.92
2019-04-28T05:03:26.535Z,4.09
2019-04-28T05:05:54.954Z,4.20
2019-04-28T05:08:23.357Z,4.14
2019-04-28T05:10:51.808Z,4.03
2019-04-28T05:13:20.239Z,3.95
2019-04-28T05:15:48.627Z,3.96
2019-04-28T05:18:17.158Z,4.05
2019-04-28T05:20:45.575Z,4.14
2019-04-28T05:23:15.622Z,4.23
2019-04-28T05:25:44.435Z,4.12
2019-04-28T05:28:12.948Z,4.13
2019-04-28T05:30:42.935Z,4.12
2019-04-28T05:33:13.160Z,3.84
2019-04-28T05:35:41.745Z,3.95
2019-04-28T05:38:10.216Z,3.97
2019-04-28T05:40:39.919Z,3.90
2019-04-28T05:43:08.431Z,3.98
2019-04-28T05:45:36.956Z,3.94
2019-04-28T05:48:05.556Z,4.00
2019-04-28T05:50:44.234Z,4.04
2019-04-28T05:53:17.297Z,4.14
2019-04-28T05:55:50.052Z,4.22
2019-04-28T05:58:30.197Z,4.30
2019-04-28T06:01:15.605Z,4.29
2019-04-28T06:03:44.773Z,4.19
2019-04-28T06:06:13.208Z,4.21
2019-04-28T06:08:46.113Z,4.33
2019-04-28T06:11:33.982Z,4.29
2019-04-28T06:14:02.491Z,4.26
2019-04-28T06:16:31.058Z,4.39
2019-04-28T06:18:59.946Z,4.32
2019-04-28T06:21:28.723Z,4.35
2019-04-28T06:23:57.282Z,4.63
2019-04-28T06:26:25.783Z,4.33
2019-04-28T06:28:54.279Z,4.42
2019-04-28T06:31:23.272Z,4.50
2019-04-28T06:33:51.688Z,4.65
2019-04-28T06:36:20.264Z,4.65
2019-04-28T06:38:48.682Z,4.66
2019-04-28T06:41:17.185Z,4.76
2019-04-28T06:43:45.707Z,4.77
2019-04-28T06:46:14.128Z,4.74
2019-04-28T06:48:42.544Z,4.71
2019-04-28T06:51:11.102Z,4.86
2019-04-28T06:53:39.589Z,4.86
2019-04-28T06:56:08.154Z,5.10
2019-04-28T06:58:36.646Z,5.19
2019-04-28T07:01:05.203Z,5.72
2019-04-28T07:03:33.660Z,5.88
2019-04-28T07:06:02.179Z,6.34
2019-04-28T07:08:30.963Z,6.76
2019-04-28T07:10:59.370Z,6.77
2019-04-28T07:13:27.862Z,6.77
2019-04-28T07:15:56.750Z,7.00
2019-04-28T07:18:25.234Z,7.17
2019-04-28T07:21:07.481Z,7.10
2019-04-28T07:23:37.542Z,7.21
2019-04-28T07:26:06.045Z,7.28
2019-04-28T07:28:34.555Z,7.12
2019-04-28T07:31:03.056Z,6.67
2019-04-28T07:33:36.047Z,7.16
2019-04-28T07:36:01.721Z,8.99
2019-04-28T07:38:30.130Z,8.95
2019-04-28T07:40:58.832Z,8.76
2019-04-28T07:43:27.316Z,8.35
2019-04-28T07:45:55.833Z,8.21
2019-04-28T07:48:24.257Z,8.43
2019-04-28T07:50:52.691Z,8.35
2019-04-28T07:53:28.952Z,8.60
2019-04-28T07:55:57.388Z,8.48
2019-04-28T07:58:25.959Z,8.47
2019-04-28T08:00:54.537Z,8.36
2019-04-28T08:03:23.093Z,7.90
2019-04-28T08:05:51.543Z,7.76
2019-04-28T08:08:20.323Z,7.71
2019-04-28T08:10:48.838Z,7.52
2019-04-28T08:13:17.298Z,7.62
2019-04-28T08:15:45.815Z,7.83
2019-04-28T08:18:14.242Z,7.76
2019-04-28T08:20:42.651Z,7.94
2019-04-28T08:23:11.399Z,7.76
2019-04-28T08:25:39.899Z,8.01
2019-04-28T08:28:08.380Z,7.57
2019-04-28T08:30:36.914Z,6.75
2019-04-28T08:33:23.539Z,6.21
2019-04-28T08:35:52.081Z,5.61
2019-04-28T08:38:20.581Z,5.63
2019-04-28T08:40:49.491Z,5.43
2019-04-28T08:43:18.057Z,5.82
2019-04-28T08:45:46.546Z,6.10
2019-04-28T08:48:15.024Z,6.70
2019-04-28T08:50:43.583Z,8.12
2019-04-28T08:53:14.015Z,10.07
2019-04-28T08:55:42.384Z,9.13
2019-04-28T08:58:10.798Z,8.79
2019-04-28T09:00:39.334Z,8.61
2019-04-28T09:03:07.806Z,8.11
2019-04-28T09:05:36.237Z,7.61
2019-04-28T09:08:04.761Z,6.90
2019-04-28T09:10:33.348Z,6.27
2019-04-28T09:13:01.814Z,6.07
2019-04-28T09:15:30.226Z,5.65
2019-04-28T09:17:58.740Z,5.61
2019-04-28T09:20:27.204Z,5.68
2019-04-28T09:22:55.618Z,5.62
2019-04-28T09:25:24.142Z,5.93
2019-04-28T09:27:52.641Z,6.26
2019-04-28T09:30:21.232Z,6.50
2019-04-28T09:32:49.726Z,6.50
2019-04-28T09:35:18.165Z,6.67
2019-04-28T09:37:46.670Z,6.92
2019-04-28T09:40:16.837Z,7.45
2019-04-28T09:43:03.284Z,7.38
2019-04-28T09:45:42.775Z,7.90
2019-04-28T09:48:11.295Z,8.69
2019-04-28T09:50:39.738Z,8.86
2019-04-28T09:53:08.166Z,9.75
2019-04-28T09:55:36.654Z,10.31
2019-04-28T09:58:05.149Z,10.28
2019-04-28T10:00:33.650Z,10.25
2019-04-28T10:03:02.114Z,10.18
2019-04-28T10:05:30.626Z,10.42
2019-04-28T10:07:59.071Z,10.60
2019-04-28T10:10:27.541Z,10.77
2019-04-28T10:12:56.076Z,10.77
2019-04-28T10:15:24.678Z,11.05
2019-04-28T10:17:53.165Z,10.95
2019-04-28T10:20:22.279Z,11.04
2019-04-28T10:22:50.827Z,10.39
2019-04-28T10:25:21.164Z,10.24
2019-04-28T10:27:49.945Z,10.36
2019-04-28T10:30:18.507Z,10.31
2019-04-28T10:32:47.009Z,10.14
2019-04-28T10:35:15.842Z,10.38
2019-04-28T10:37:45.640Z,10.26
2019-04-28T10:40:18.911Z,10.08
2019-04-28T10:42:47.377Z,10.44
2019-04-28T10:45:17.534Z,11.08
2019-04-28T10:47:46.147Z,12.07
2019-04-28T10:50:14.909Z,13.64
2019-04-28T10:52:43.410Z,13.78
2019-04-28T10:55:11.998Z,14.23
2019-04-28T10:57:40.428Z,14.40
2019-04-28T11:00:10.604Z,13.86
2019-04-28T11:02:40.747Z,13.16
2019-04-28T11:05:10.944Z,12.76
2019-04-28T11:07:39.728Z,12.85
2019-04-28T11:10:13.229Z,12.45
2019-04-28T11:12:41.736Z,13.03
2019-04-28T11:15:12.291Z,13.00
2019-04-28T11:17:40.941Z,13.27
2019-04-28T11:20:09.539Z,13.10
2019-04-28T11:22:38.096Z,13.24
2019-04-28T11:25:07.713Z,12.81
2019-04-28T11:27:36.205Z,12.05
2019-04-28T11:30:07.107Z,11.68
2019-04-28T11:32:35.664Z,11.66
2019-04-28T11:35:22.232Z,11.66
2019-04-28T11:37:50.834Z,11.65
2019-04-28T11:40:19.252Z,12.15
2019-04-28T11:42:47.840Z,12.11
2019-04-28T11:45:16.347Z,11.79
2019-04-28T11:47:44.822Z,11.82
2019-04-28T11:50:13.864Z,12.02
2019-04-28T11:52:42.323Z,12.30
2019-04-28T11:55:11.250Z,12.39
2019-04-28T11:57:39.778Z,12.43
2019-04-28T12:00:12.910Z,12.49
2019-04-28T12:02:41.401Z,13.00
2019-04-28T12:05:10.082Z,12.61
2019-04-28T12:07:38.543Z,12.76
2019-04-28T12:10:11.755Z,12.84
2019-04-28T12:12:47.881Z,12.85
2019-04-28T12:15:20.623Z,12.67
2019-04-28T12:17:50.698Z,12.68
2019-04-28T12:20:20.883Z,12.29
2019-04-28T12:22:49.299Z,12.41
2019-04-28T12:25:17.792Z,12.00
2019-04-28T12:27:46.319Z,12.43
2019-04-28T12:30:15.255Z,11.88
2019-04-28T12:32:43.719Z,11.91
2019-04-28T12:35:12.327Z,11.88
2019-04-28T12:37:41.063Z,11.87
2019-04-28T12:40:09.742Z,11.46
2019-04-28T12:42:38.309Z,10.94
2019-04-28T12:45:07.457Z,10.41
2019-04-28T12:47:35.943Z,9.93
2019-04-28T12:50:13.866Z,9.88
2019-04-28T12:52:42.375Z,10.12
2019-04-28T12:55:11.137Z,10.32
2019-04-28T12:57:39.704Z,10.08
2019-04-28T13:00:16.250Z,10.04
2019-04-28T13:03:02.769Z,10.35
2019-04-28T13:05:32.912Z,10.44
2019-04-28T13:08:02.640Z,10.11
2019-04-28T13:10:31.136Z,10.18
2019-04-28T13:12:59.595Z,10.00
2019-04-28T13:15:28.093Z,10.27
2019-04-28T13:17:56.653Z,10.49
2019-04-28T13:20:25.157Z,10.42
2019-04-28T13:22:53.744Z,10.43
2019-04-28T13:25:22.407Z,10.98
2019-04-28T13:27:51.042Z,10.81
2019-04-28T13:30:20.349Z,10.78
2019-04-28T13:32:48.786Z,10.49
2019-04-28T13:35:17.404Z,9.92
2019-04-28T13:37:46.227Z,10.11
2019-04-28T13:40:16.416Z,9.39
2019-04-28T13:42:44.910Z,10.01
2019-04-28T13:45:15.246Z,10.50
2019-04-28T13:47:43.774Z,10.76
2019-04-28T13:50:15.775Z,10.61
2019-04-28T13:52:44.278Z,10.74
2019-04-28T13:55:26.465Z,10.93
2019-04-28T13:57:55.595Z,10.70
2019-04-28T14:00:32.217Z,10.72
2019-04-28T14:03:02.321Z,10.42
2019-04-28T14:05:48.992Z,10.35
2019-04-28T14:08:17.521Z,10.28
2019-04-28T14:10:45.981Z,9.92
2019-04-28T14:13:14.408Z,10.03
2019-04-28T14:15:42.977Z,10.15
2019-04-28T14:18:11.360Z,9.93
2019-04-28T14:20:39.877Z,9.82
2019-04-28T14:23:08.364Z,9.96
2019-04-28T14:25:37.079Z,9.81
2019-04-28T14:28:05.689Z,9.84
2019-04-28T14:30:34.190Z,9.89
2019-04-28T14:33:02.688Z,9.91
2019-04-28T14:35:32.810Z,10.04
2019-04-28T14:38:01.304Z,9.75
2019-04-28T14:40:29.810Z,9.73
2019-04-28T14:42:58.347Z,9.92
2019-04-28T14:45:26.825Z,9.67
2019-04-28T14:47:55.246Z,9.62
2019-04-28T14:50:23.847Z,9.68
2019-04-28T14:52:52.297Z,9.95
2019-04-28T14:55:20.888Z,9.88
2019-04-28T14:57:49.433Z,9.73
2019-04-28T15:00:19.786Z,9.86
2019-04-28T15:02:49.948Z,9.88
2019-04-28T15:05:39.062Z,9.64
2019-04-28T15:08:24.642Z,9.85
2019-04-28T15:11:00.771Z,9.91
2019-04-28T15:13:29.239Z,9.87
2019-04-28T15:15:57.664Z,9.85
2019-04-28T15:18:26.130Z,9.97
2019-04-28T15:20:54.739Z,9.03
2019-04-28T15:23:23.248Z,9.30
2019-04-28T15:25:51.754Z,9.38
2019-04-28T15:28:20.255Z,9.24
2019-04-28T15:30:48.697Z,9.25
2019-04-28T15:33:17.284Z,9.08
2019-04-28T15:35:45.807Z,9.17
2019-04-28T15:38:14.250Z,8.82
2019-04-28T15:40:43.180Z,9.07
2019-04-28T15:43:11.685Z,9.22
2019-04-28T15:45:40.306Z,8.83
2019-04-28T15:48:08.843Z,8.55
2019-04-28T15:50:37.352Z,8.52
2019-04-28T15:53:05.840Z,8.88
2019-04-28T15:55:45.350Z,8.94
2019-04-28T15:58:29.101Z,9.04
2019-04-28T16:00:57.908Z,8.74
2019-04-28T16:03:26.508Z,8.76
2019-04-28T16:05:55.038Z,8.71
2019-04-28T16:08:23.543Z,8.71
2019-04-28T16:10:52.282Z,8.64
2019-04-28T16:13:20.750Z,8.42
2019-04-28T16:15:49.305Z,7.48
2019-04-28T16:18:17.942Z,7.91
2019-04-28T16:20:46.495Z,7.80
2019-04-28T16:23:15.124Z,7.84
2019-04-28T16:25:43.622Z,7.80
2019-04-28T16:28:12.270Z,7.84
2019-04-28T16:30:40.851Z,7.85
2019-04-28T16:33:09.354Z,7.54
2019-04-28T16:35:37.814Z,7.30
2019-04-28T16:38:06.376Z,6.98
2019-04-28T16:40:36.802Z,6.63
2019-04-28T16:43:07.363Z,6.56
2019-04-28T16:45:35.848Z,6.37
2019-04-28T16:48:04.424Z,6.33
2019-04-28T16:50:32.902Z,6.47
2019-04-28T16:53:01.319Z,6.27
2019-04-28T16:55:34.488Z,6.20
2019-04-28T16:58:21.243Z,6.15
2019-04-28T17:01:00.092Z,6.19
2019-04-28T17:03:30.197Z,6.24
2019-04-28T17:05:58.743Z,6.17
2019-04-28T17:08:27.272Z,5.86
2019-04-28T17:10:55.780Z,6.03
2019-04-28T17:13:24.261Z,6.07
2019-04-28T17:15:52.831Z,6.19
2019-04-28T17:18:21.279Z,6.09
2019-04-28T17:20:49.851Z,6.10
2019-04-28T17:23:18.380Z,6.06
2019-04-28T17:25:46.892Z,6.20
2019-04-28T17:28:15.658Z,6.01
2019-04-28T17:30:44.276Z,5.82
2019-04-28T17:33:12.870Z,5.49
2019-04-28T17:35:41.460Z,5.61
2019-04-28T17:38:09.938Z,5.70
2019-04-28T17:40:38.610Z,5.60
2019-04-28T17:43:08.243Z,5.76
2019-04-28T17:45:36.857Z,5.49
2019-04-28T17:48:07.177Z,5.60
2019-04-28T17:50:36.070Z,5.54
2019-04-28T17:53:04.955Z,5.32
2019-04-28T17:55:33.420Z,5.34
2019-04-28T17:58:01.855Z,5.45
2019-04-28T18:00:34.488Z,5.34
2019-04-28T18:03:07.547Z,5.47
2019-04-28T18:05:43.368Z,5.70
2019-04-28T18:08:20.905Z,5.76
2019-04-28T18:10:42.258Z,5.64
2019-04-28T18:13:10.910Z,5.94
2019-04-28T18:15:43.765Z,6.00
2019-04-28T18:18:22.691Z,6.15
2019-04-28T18:20:51.249Z,6.05
2019-04-28T18:23:19.732Z,6.32
2019-04-28T18:25:48.253Z,6.22
2019-04-28T18:28:16.734Z,6.29
2019-04-28T18:30:46.874Z,6.40
2019-04-28T18:33:25.500Z,6.29
2019-04-28T18:35:55.588Z,6.23
2019-04-28T18:38:34.686Z,6.16
2019-04-28T18:41:03.311Z,5.96
2019-04-28T18:43:45.409Z,5.97
2019-04-28T18:46:17.046Z,5.89
2019-04-28T18:48:45.808Z,5.95
2019-04-28T18:51:14.293Z,5.88
2019-04-28T18:53:44.513Z,5.62
2019-04-28T18:56:13.269Z,5.69
2019-04-28T18:58:41.824Z,5.59
2019-04-28T19:01:11.978Z,5.63
2019-04-28T19:03:40.440Z,5.55
2019-04-28T19:06:09.101Z,5.61
2019-04-28T19:08:48.851Z,5.47
2019-04-28T19:11:14.129Z,5.27
2019-04-28T19:13:44.326Z,5.20
2019-04-28T19:16:20.192Z,5.21
2019-04-28T19:18:50.390Z,5.19
2019-04-28T19:21:18.909Z,5.07
2019-04-28T19:23:47.384Z,5.24
2019-04-28T19:26:15.932Z,5.27
2019-04-28T19:28:44.421Z,5.27
2019-04-28T19:31:12.899Z,5.02
2019-04-28T19:33:42.312Z,5.14
2019-04-28T19:36:10.766Z,5.08
2019-04-28T19:38:39.254Z,5.16
2019-04-28T19:41:07.804Z,5.48
2019-04-28T19:43:36.256Z,5.37
2019-04-28T19:46:06.449Z,5.33
2019-04-28T19:48:34.959Z,5.35
2019-04-28T19:51:03.453Z,5.55
2019-04-28T19:53:32.072Z,5.35
2019-04-28T19:56:08.125Z,5.30
2019-04-28T19:58:38.242Z,5.22
2019-04-28T20:01:08.390Z,5.23
2019-04-28T20:03:36.900Z,5.31
2019-04-28T20:06:05.388Z,5.30
2019-04-28T20:08:33.904Z,5.28
2019-04-28T20:11:02.482Z,5.27
2019-04-28T20:13:31.519Z,5.21
2019-04-28T20:16:00.005Z,5.22
2019-04-28T20:18:29.645Z,5.15
2019-04-28T20:20:58.381Z,5.17
2019-04-28T20:23:26.799Z,5.15
2019-04-28T20:25:55.258Z,5.22
2019-04-28T20:28:23.687Z,5.12
2019-04-28T20:30:52.099Z,5.30
2019-04-28T20:33:20.588Z,5.31
2019-04-28T20:35:53.743Z,5.27
2019-04-28T20:38:29.904Z,5.20
2019-04-28T20:41:02.997Z,5.21
2019-04-28T20:43:31.777Z,5.30
2019-04-28T20:46:00.327Z,5.25
2019-04-28T20:48:28.786Z,5.27
2019-04-28T20:50:57.285Z,5.24
2019-04-28T20:53:25.692Z,5.17
2019-04-28T20:55:54.130Z,5.21
2019-04-28T20:58:22.577Z,5.17
2019-04-28T21:00:50.992Z,5.16
2019-04-28T21:03:19.411Z,5.19
2019-04-28T21:05:47.854Z,5.20
2019-04-28T21:08:16.272Z,5.15
2019-04-28T21:10:44.759Z,5.09
2019-04-28T21:13:13.560Z,5.10
2019-04-28T21:15:41.962Z,5.09
2019-04-28T21:18:10.537Z,5.00
2019-04-28T21:20:38.989Z,4.98
2019-04-28T21:23:07.479Z,5.01
2019-04-28T21:25:35.923Z,4.97
2019-04-28T21:28:04.696Z,4.97
2019-04-28T21:30:33.313Z,5.01
2019-04-28T21:33:01.777Z,5.06
2019-04-28T21:35:30.208Z,5.05
2019-04-28T21:37:58.634Z,4.95
2019-04-28T21:40:27.808Z,5.05
2019-04-28T21:43:06.781Z,5.09
2019-04-28T21:45:43.047Z,5.07
2019-04-28T21:48:13.195Z,5.19
2019-04-28T21:50:41.701Z,5.12
2019-04-28T21:53:10.111Z,5.02
2019-04-28T21:55:38.643Z,5.04
2019-04-28T21:58:07.065Z,5.02
2019-04-28T22:00:56.431Z,4.97
2019-04-28T22:03:25.293Z,5.07
2019-04-28T22:05:53.840Z,4.95
2019-04-28T22:08:22.348Z,5.04
2019-04-28T22:10:50.906Z,4.96
2019-04-28T22:13:19.356Z,4.89
2019-04-28T22:15:47.780Z,4.84
2019-04-28T22:18:16.260Z,4.74
2019-04-28T22:20:44.685Z,4.78
2019-04-28T22:23:18.627Z,4.79
2019-04-28T22:25:47.431Z,4.90
2019-04-28T22:28:15.882Z,4.84
2019-04-28T22:30:44.305Z,4.82
2019-04-28T22:33:12.758Z,4.77
2019-04-28T22:35:41.235Z,4.80
2019-04-28T22:38:09.759Z,4.74
2019-04-28T22:40:38.243Z,4.72
2019-04-28T22:43:06.668Z,4.70
2019-04-28T22:45:35.136Z,4.79
2019-04-28T22:48:04.235Z,4.74
2019-04-28T22:50:44.233Z,4.79
2019-04-28T22:53:14.017Z,4.71
2019-04-28T22:55:44.076Z,4.62
2019-04-28T22:58:26.194Z,4.67
2019-04-28T23:01:01.963Z,4.55
2019-04-28T23:03:37.836Z,4.56
2019-04-28T23:06:06.332Z,4.55
2019-04-28T23:08:34.816Z,4.65
2019-04-28T23:11:03.268Z,4.63
2019-04-28T23:13:31.690Z,4.63
2019-04-28T23:16:01.168Z,4.64
2019-04-28T23:18:29.992Z,4.67
2019-04-28T23:21:00.492Z,4.72
2019-04-28T23:23:28.900Z,4.82
2019-04-28T23:25:57.463Z,4.75
2019-04-28T23:28:25.911Z,4.77
2019-04-28T23:30:54.401Z,4.80
2019-04-28T23:33:23.021Z,4.89
2019-04-28T23:35:51.474Z,4.95
2019-04-28T23:38:19.908Z,4.97
2019-04-28T23:40:50.053Z,4.86
2019-04-28T23:43:21.950Z,4.85
2019-04-28T23:45:50.365Z,4.83
2019-04-28T23:48:18.809Z,4.90
2019-04-28T23:50:51.350Z,4.90
2019-04-28T23:53:21.398Z,4.86
2019-04-28T23:55:49.929Z,4.95
2019-04-28T23:58:18.373Z,4.90
